createdAt,value
2022-10-19T00:00:10.522Z,1.20
2022-10-19T00:02:38.813Z,1.13
2022-10-19T00:05:07.587Z,0.60
2022-10-19T00:07:36.335Z,1.63
2022-10-19T00:10:05.530Z,0.73
2022-10-19T00:12:35.312Z,1.40
2022-10-19T00:15:03.671Z,0.97
2022-10-19T00:17:32.287Z,0.87
2022-10-19T00:20:00.846Z,2.20
2022-10-19T00:22:29.087Z,0.70
2022-10-19T00:24:58.272Z,0.90
2022-10-19T00:27:26.671Z,0.70
2022-10-19T00:29:56.382Z,0.60
2022-10-19T00:32:24.682Z,0.70
2022-10-19T00:34:53.030Z,0.70
2022-10-19T00:37:21.335Z,1.70
2022-10-19T00:42:18.051Z,0.70
2022-10-19T00:45:01.544Z,0.77
2022-10-19T00:47:29.994Z,0.83
2022-10-19T00:49:59.644Z,0.70
2022-10-19T00:52:28.443Z,0.80
2022-10-19T00:54:58.232Z,1.60
2022-10-19T00:57:30.534Z,1.33
2022-10-19T01:00:00.919Z,0.70
2022-10-19T01:02:29.263Z,1.10
2022-10-19T01:04:57.682Z,0.73
2022-10-19T01:07:26.291Z,0.70
2022-10-19T01:09:54.937Z,0.60
2022-10-19T01:12:37.171Z,0.70
2022-10-19T01:15:14.287Z,0.97
2022-10-19T01:17:48.425Z,1.20
2022-10-19T01:20:32.362Z,1.00
2022-10-19T01:23:17.758Z,1.67
2022-10-19T01:25:51.960Z,1.00
2022-10-19T01:28:27.163Z,1.33
2022-10-19T01:31:01.034Z,1.20
2022-10-19T01:33:33.164Z,0.70
2022-10-19T01:36:06.914Z,0.70
2022-10-19T01:38:37.913Z,0.70
2022-10-19T01:41:13.420Z,1.57
2022-10-19T01:43:43.602Z,2.03
2022-10-19T01:46:15.617Z,0.87
2022-10-19T01:48:47.566Z,1.03
2022-10-19T01:51:19.469Z,0.70
2022-10-19T01:53:49.610Z,0.83
2022-10-19T01:56:19.479Z,0.90
2022-10-19T01:58:48.482Z,0.97
2022-10-19T02:01:20.749Z,0.70
2022-10-19T02:03:49.685Z,0.70
2022-10-19T02:06:19.373Z,0.70
2022-10-19T02:08:48.835Z,1.00
2022-10-19T02:11:17.315Z,1.10
2022-10-19T02:13:47.014Z,0.97
2022-10-19T02:16:16.350Z,2.17
2022-10-19T02:18:47.890Z,1.00
2022-10-19T02:21:16.164Z,1.83
2022-10-19T02:23:44.477Z,0.70
2022-10-19T02:26:12.974Z,0.70
2022-10-19T02:28:41.376Z,0.70
2022-10-19T02:31:09.759Z,0.70
2022-10-19T02:33:38.407Z,1.33
2022-10-19T02:36:08.438Z,0.90
2022-10-19T02:38:36.969Z,0.90
2022-10-19T02:41:08.315Z,0.70
2022-10-19T02:43:38.657Z,0.60
2022-10-19T02:46:09.276Z,1.67
2022-10-19T02:48:38.849Z,1.57
2022-10-19T02:51:08.569Z,0.83
2022-10-19T02:53:36.929Z,0.80
2022-10-19T02:56:05.330Z,0.60
2022-10-19T02:58:33.642Z,0.70
2022-10-19T03:01:01.986Z,1.00
2022-10-19T03:03:30.318Z,1.00
2022-10-19T03:05:58.648Z,0.67
2022-10-19T03:08:28.382Z,0.70
2022-10-19T03:10:56.672Z,0.60
2022-10-19T03:13:24.994Z,0.70
2022-10-19T03:15:53.435Z,0.70
2022-10-19T03:18:21.709Z,0.70
2022-10-19T03:20:50.033Z,0.70
2022-10-19T03:23:18.305Z,0.97
2022-10-19T03:25:47.973Z,0.63
2022-10-19T03:28:16.267Z,0.60
2022-10-19T03:30:44.614Z,0.70
2022-10-19T03:33:12.958Z,0.83
2022-10-19T03:35:41.289Z,0.80
2022-10-19T03:38:09.642Z,1.20
2022-10-19T03:40:37.961Z,0.73
2022-10-19T03:43:07.650Z,0.70
2022-10-19T03:45:36.070Z,0.70
2022-10-19T03:48:04.434Z,0.70
2022-10-19T03:50:32.814Z,0.67
2022-10-19T03:55:29.435Z,0.80
2022-10-19T03:57:57.755Z,0.80
2022-10-19T04:00:27.534Z,0.60
2022-10-19T04:02:55.844Z,0.70
2022-10-19T04:05:26.921Z,0.70
2022-10-19T04:07:58.232Z,0.80
2022-10-19T04:10:26.503Z,0.63
2022-10-19T04:12:54.875Z,1.00
2022-10-19T04:15:23.219Z,0.80
2022-10-19T04:17:54.895Z,0.80
2022-10-19T04:20:23.229Z,0.70
2022-10-19T04:22:53.992Z,0.70
2022-10-19T04:25:22.435Z,0.80
2022-10-19T04:27:50.762Z,0.70
2022-10-19T04:30:19.137Z,0.70
2022-10-19T04:32:47.446Z,1.90
2022-10-19T04:35:17.336Z,0.70
2022-10-19T04:37:45.650Z,0.80
2022-10-19T04:40:15.001Z,0.70
2022-10-19T04:42:43.595Z,0.70
2022-10-19T04:45:12.517Z,0.67
2022-10-19T04:47:40.815Z,0.70
2022-10-19T04:50:09.338Z,1.53
2022-10-19T04:52:39.436Z,0.70
2022-10-19T04:55:07.890Z,0.70
2022-10-19T04:57:36.547Z,0.70
2022-10-19T05:00:06.044Z,0.90
2022-10-19T05:02:34.371Z,0.70
2022-10-19T05:05:02.748Z,0.70
2022-10-19T05:07:31.187Z,1.13
2022-10-19T05:10:00.952Z,0.70
2022-10-19T05:12:29.280Z,0.70
2022-10-19T05:14:57.618Z,0.70
2022-10-19T05:17:25.981Z,0.70
2022-10-19T05:19:54.282Z,1.33
2022-10-19T05:22:22.575Z,0.70
2022-10-19T05:24:54.513Z,0.80
2022-10-19T05:27:27.671Z,0.60
2022-10-19T05:29:55.989Z,0.70
2022-10-19T05:32:24.332Z,0.90
2022-10-19T05:34:52.694Z,0.60
2022-10-19T05:37:21.616Z,0.70
2022-10-19T05:39:49.964Z,0.60
2022-10-19T05:42:18.307Z,0.60
2022-10-19T05:44:48.217Z,0.70
2022-10-19T05:47:16.678Z,0.63
2022-10-19T05:49:45.074Z,13.30
2022-10-19T05:52:13.954Z,0.60
2022-10-19T05:54:42.302Z,1.10
2022-10-19T05:57:10.894Z,0.70
2022-10-19T05:59:39.601Z,0.87
2022-10-19T06:02:13.192Z,0.70
2022-10-19T06:04:41.895Z,0.70
2022-10-19T06:07:10.476Z,0.70
2022-10-19T06:09:38.989Z,1.10
2022-10-19T06:12:07.665Z,0.60
2022-10-19T06:14:36.271Z,0.70
2022-10-19T06:17:04.890Z,0.60
2022-10-19T06:19:34.925Z,0.87
2022-10-19T06:22:03.523Z,1.07
2022-10-19T06:24:32.256Z,0.97
2022-10-19T06:27:00.780Z,0.70
2022-10-19T06:29:29.945Z,0.73
2022-10-19T06:32:00.367Z,0.60
2022-10-19T06:34:29.204Z,0.60
2022-10-19T06:36:59.288Z,0.80
2022-10-19T06:39:27.835Z,0.70
2022-10-19T06:41:56.373Z,0.90
2022-10-19T06:44:25.028Z,0.70
2022-10-19T06:46:53.653Z,0.60
2022-10-19T06:49:22.578Z,0.60
2022-10-19T06:51:51.218Z,1.57
2022-10-19T06:54:21.235Z,0.63
2022-10-19T06:59:18.407Z,1.50
2022-10-19T07:01:46.852Z,1.17
2022-10-19T07:04:15.574Z,1.27
2022-10-19T07:06:44.263Z,1.00
2022-10-19T07:09:12.856Z,1.33
2022-10-19T07:11:46.072Z,0.83
2022-10-19T07:14:14.728Z,0.60
2022-10-19T07:16:43.245Z,0.93
2022-10-19T07:19:11.875Z,1.23
2022-10-19T07:21:44.895Z,0.80
2022-10-19T07:24:13.389Z,0.60
2022-10-19T07:26:43.335Z,0.90
2022-10-19T07:29:12.073Z,0.60
2022-10-19T07:31:41.535Z,1.07
2022-10-19T07:34:13.430Z,0.60
2022-10-19T07:36:45.078Z,0.83
2022-10-19T07:39:16.940Z,0.70
2022-10-19T07:41:47.307Z,0.73
2022-10-19T07:44:16.294Z,0.77
2022-10-19T07:46:44.984Z,0.83
2022-10-19T07:49:16.325Z,1.10
2022-10-19T07:51:44.837Z,1.33
2022-10-19T07:54:13.724Z,0.63
2022-10-19T07:56:42.318Z,1.33
2022-10-19T07:59:14.888Z,0.70
2022-10-19T08:01:44.746Z,1.30
2022-10-19T08:04:48.978Z,0.57
2022-10-19T08:07:02.141Z,1.27
2022-10-19T08:12:19.795Z,1.33
2022-10-19T08:14:50.268Z,0.70
2022-10-19T08:17:19.187Z,1.23
2022-10-19T08:19:48.654Z,1.10
2022-10-19T08:22:17.365Z,0.77
2022-10-19T08:24:46.131Z,0.80
2022-10-19T08:27:15.911Z,0.80
2022-10-19T08:29:44.605Z,0.97
2022-10-19T08:32:14.612Z,1.73
2022-10-19T08:34:43.224Z,1.00
2022-10-19T08:37:25.686Z,0.53
2022-10-19T08:40:00.595Z,1.30
2022-10-19T08:42:33.911Z,0.60
2022-10-19T08:45:09.677Z,0.93
2022-10-19T08:47:53.119Z,0.53
2022-10-19T08:50:23.325Z,1.40
2022-10-19T08:52:53.767Z,0.50
2022-10-19T08:55:29.181Z,1.80
2022-10-19T08:58:02.302Z,1.70
2022-10-19T09:00:34.899Z,1.90
2022-10-19T09:03:09.364Z,1.73
2022-10-19T09:05:39.992Z,1.40
2022-10-19T09:08:13.103Z,1.60
2022-10-19T09:10:46.434Z,1.43
2022-10-19T09:13:18.710Z,0.93
2022-10-19T09:15:49.089Z,1.10
2022-10-19T09:18:21.603Z,1.33
2022-10-19T09:20:50.914Z,0.80
2022-10-19T09:23:22.760Z,1.83
2022-10-19T09:25:52.137Z,1.53
2022-10-19T09:28:39.833Z,1.47
2022-10-19T09:31:12.913Z,1.63
2022-10-19T09:33:46.446Z,1.17
2022-10-19T09:36:22.623Z,1.37
2022-10-19T09:38:51.722Z,2.20
2022-10-19T09:41:22.177Z,1.10
2022-10-19T09:43:53.932Z,1.53
2022-10-19T09:46:29.661Z,1.60
2022-10-19T09:49:02.096Z,0.93
2022-10-19T09:51:40.888Z,1.20
2022-10-19T09:54:24.300Z,1.77
2022-10-19T09:56:55.147Z,2.93
2022-10-19T09:59:24.343Z,1.10
2022-10-19T10:04:36.492Z,1.10
2022-10-19T10:07:05.665Z,1.23
2022-10-19T10:09:34.702Z,1.23
2022-10-19T10:12:04.657Z,1.27
2022-10-19T10:14:35.171Z,1.40
2022-10-19T10:17:05.372Z,1.13
2022-10-19T10:19:37.489Z,1.20
2022-10-19T10:22:06.329Z,1.23
2022-10-19T10:24:35.988Z,1.30
2022-10-19T10:27:05.790Z,1.53
2022-10-19T10:29:35.163Z,1.03
2022-10-19T10:32:06.781Z,2.20
2022-10-19T10:34:49.763Z,1.20
2022-10-19T10:37:27.553Z,1.30
2022-10-19T10:39:59.169Z,1.87
2022-10-19T10:42:33.121Z,1.20
2022-10-19T10:45:01.904Z,1.10
2022-10-19T10:47:30.577Z,1.10
2022-10-19T10:50:02.959Z,1.57
2022-10-19T10:52:33.130Z,1.40
2022-10-19T10:55:03.703Z,1.70
2022-10-19T10:57:34.138Z,1.17
2022-10-19T11:00:07.731Z,1.93
2022-10-19T11:02:43.496Z,1.50
2022-10-19T11:05:19.892Z,0.80
2022-10-19T11:07:50.318Z,0.97
2022-10-19T11:10:22.972Z,1.23
2022-10-19T11:12:54.203Z,2.20
2022-10-19T11:15:25.068Z,1.50
2022-10-19T11:17:57.691Z,0.70
2022-10-19T11:20:29.836Z,1.33
2022-10-19T11:23:01.362Z,2.00
2022-10-19T11:25:33.608Z,1.80
2022-10-19T11:28:06.560Z,1.63
2022-10-19T11:30:41.617Z,1.63
2022-10-19T11:33:17.295Z,1.53
2022-10-19T11:35:53.356Z,1.57
2022-10-19T11:38:31.811Z,1.10
2022-10-19T11:41:22.846Z,1.20
2022-10-19T11:43:59.341Z,1.67
2022-10-19T11:46:30.920Z,1.47
2022-10-19T11:49:04.738Z,0.87
2022-10-19T11:51:37.877Z,1.43
2022-10-19T11:54:14.786Z,1.37
2022-10-19T11:57:02.190Z,1.30
2022-10-19T11:59:35.744Z,1.33
2022-10-19T12:02:08.587Z,1.90
2022-10-19T12:04:44.799Z,1.70
2022-10-19T12:07:30.912Z,1.73
2022-10-19T12:10:04.933Z,1.57
2022-10-19T12:12:34.397Z,2.13
2022-10-19T12:15:06.519Z,1.40
2022-10-19T12:17:38.496Z,2.13
2022-10-19T12:20:10.167Z,1.57
2022-10-19T12:22:41.940Z,1.40
2022-10-19T12:25:14.634Z,2.20
2022-10-19T12:27:45.918Z,1.50
2022-10-19T12:30:16.214Z,1.70
2022-10-19T12:32:53.477Z,1.33
2022-10-19T12:35:34.096Z,2.13
2022-10-19T12:38:08.164Z,1.70
2022-10-19T12:40:39.560Z,1.70
2022-10-19T12:43:12.781Z,2.00
2022-10-19T12:45:43.250Z,1.70
2022-10-19T12:48:22.322Z,1.37
2022-10-19T12:51:01.431Z,2.30
2022-10-19T12:53:32.097Z,1.20
2022-10-19T12:56:01.555Z,2.03
2022-10-19T12:58:34.529Z,2.13
2022-10-19T13:01:04.386Z,1.90
2022-10-19T13:03:35.472Z,2.43
2022-10-19T13:06:04.832Z,3.13
2022-10-19T13:08:38.554Z,2.30
2022-10-19T13:11:10.064Z,2.30
2022-10-19T13:13:58.829Z,2.37
2022-10-19T13:16:35.326Z,1.73
2022-10-19T13:19:06.580Z,1.90
2022-10-19T13:21:54.035Z,2.30
2022-10-19T13:24:43.581Z,1.87
2022-10-19T13:27:39.701Z,1.73
2022-10-19T13:30:32.136Z,1.90
2022-10-19T13:33:00.897Z,1.90
2022-10-19T13:35:33.532Z,2.00
2022-10-19T13:38:32.479Z,1.60
2022-10-19T13:41:09.224Z,2.23
2022-10-19T13:43:41.086Z,2.53
2022-10-19T13:46:16.067Z,1.67
2022-10-19T13:48:50.741Z,2.43
2022-10-19T13:51:25.085Z,1.80
2022-10-19T13:53:56.496Z,1.77
2022-10-19T13:56:30.214Z,1.93
2022-10-19T13:59:28.318Z,2.33
2022-10-19T14:02:31.499Z,2.50
2022-10-19T14:05:10.083Z,2.53
2022-10-19T14:07:42.134Z,2.27
2022-10-19T14:10:14.695Z,1.80
2022-10-19T14:12:44.429Z,1.63
2022-10-19T14:15:24.760Z,1.80
2022-10-19T14:17:55.256Z,1.00
2022-10-19T14:20:28.033Z,2.53
2022-10-19T14:22:56.948Z,1.67
2022-10-19T14:25:27.463Z,1.10
2022-10-19T14:28:03.132Z,1.50
2022-10-19T14:30:32.825Z,1.23
2022-10-19T14:33:03.900Z,1.90
2022-10-19T14:35:33.734Z,1.30
2022-10-19T14:38:02.672Z,1.53
2022-10-19T14:40:35.263Z,1.47
2022-10-19T14:43:03.869Z,2.03
2022-10-19T14:45:33.876Z,2.77
2022-10-19T14:48:04.325Z,2.10
2022-10-19T14:53:12.560Z,1.93
2022-10-19T14:55:43.616Z,2.57
2022-10-19T14:58:14.799Z,1.83
2022-10-19T15:00:46.815Z,2.53
2022-10-19T15:03:22.547Z,2.20
2022-10-19T15:05:53.200Z,1.73
2022-10-19T15:08:28.628Z,1.63
2022-10-19T15:10:57.455Z,2.30
2022-10-19T15:13:28.527Z,2.00
2022-10-19T15:15:57.173Z,1.30
2022-10-19T15:18:48.447Z,1.50
2022-10-19T15:21:20.429Z,1.70
2022-10-19T15:23:50.356Z,3.93
2022-10-19T15:26:20.878Z,1.80
2022-10-19T15:28:50.183Z,1.57
2022-10-19T15:31:20.300Z,1.30
2022-10-19T15:33:51.862Z,1.33
2022-10-19T15:36:21.280Z,1.67
2022-10-19T15:38:50.908Z,1.23
2022-10-19T15:41:22.835Z,1.23
2022-10-19T15:43:52.725Z,1.73
2022-10-19T15:46:28.579Z,2.17
2022-10-19T15:48:58.970Z,1.57
2022-10-19T15:51:38.641Z,2.40
2022-10-19T15:54:08.555Z,2.40
2022-10-19T15:56:38.168Z,1.83
2022-10-19T15:59:07.561Z,2.70
2022-10-19T16:01:36.053Z,2.17
2022-10-19T16:04:06.284Z,1.57
2022-10-19T16:06:35.749Z,1.80
2022-10-19T16:09:04.527Z,1.50
2022-10-19T16:11:33.565Z,1.10
2022-10-19T16:14:02.165Z,2.13
2022-10-19T16:16:32.764Z,2.07
2022-10-19T16:19:01.286Z,1.80
2022-10-19T16:21:32.435Z,1.70
2022-10-19T16:24:00.939Z,1.93
2022-10-19T16:26:31.950Z,1.33
2022-10-19T16:29:01.262Z,2.03
2022-10-19T16:31:29.785Z,1.77
2022-10-19T16:33:58.290Z,1.77
2022-10-19T16:36:26.761Z,3.30
2022-10-19T16:38:56.738Z,1.83
2022-10-19T16:41:25.263Z,1.30
2022-10-19T16:43:55.831Z,1.43
2022-10-19T16:46:24.331Z,2.30
2022-10-19T16:48:52.874Z,2.23
2022-10-19T16:51:26.857Z,4.60
2022-10-19T16:53:58.983Z,2.17
2022-10-19T16:56:28.613Z,2.70
2022-10-19T16:58:58.102Z,1.77
2022-10-19T17:01:27.024Z,3.40
2022-10-19T17:03:56.036Z,2.00
2022-10-19T17:06:24.991Z,2.53
2022-10-19T17:11:44.805Z,2.87
2022-10-19T17:14:14.334Z,2.30
2022-10-19T17:16:42.723Z,2.80
2022-10-19T17:19:12.298Z,2.40
2022-10-19T17:21:42.350Z,4.30
2022-10-19T17:24:20.089Z,2.10
2022-10-19T17:26:51.814Z,3.57
2022-10-19T17:29:20.872Z,2.40
2022-10-19T17:31:49.643Z,2.80
2022-10-19T17:34:18.111Z,3.27
2022-10-19T17:36:47.384Z,2.33
2022-10-19T17:39:17.748Z,2.57
2022-10-19T17:41:46.232Z,2.73
2022-10-19T17:44:16.369Z,3.90
2022-10-19T17:46:44.670Z,3.30
2022-10-19T17:49:13.254Z,2.07
2022-10-19T17:51:41.931Z,5.10
2022-10-19T17:54:10.867Z,4.77
2022-10-19T17:56:39.475Z,2.47
2022-10-19T17:59:09.163Z,1.50
2022-10-19T18:01:39.019Z,3.10
2022-10-19T18:04:07.736Z,3.60
2022-10-19T18:06:37.424Z,3.40
2022-10-19T18:09:07.028Z,2.50
2022-10-19T18:11:38.438Z,2.77
2022-10-19T18:14:07.900Z,2.37
2022-10-19T18:16:37.219Z,2.77
2022-10-19T18:19:07.426Z,2.30
2022-10-19T18:21:38.464Z,3.50
2022-10-19T18:24:09.121Z,3.90
2022-10-19T18:26:40.247Z,4.37
2022-10-19T18:29:11.726Z,4.63
2022-10-19T18:31:40.485Z,3.90
2022-10-19T18:34:14.113Z,3.33
2022-10-19T18:36:42.397Z,3.70
2022-10-19T18:39:12.146Z,4.40
2022-10-19T18:41:41.133Z,3.57
2022-10-19T18:44:09.940Z,4.80
2022-10-19T18:46:38.907Z,4.83
2022-10-19T18:49:08.944Z,4.53
2022-10-19T18:51:38.703Z,1.93
2022-10-19T18:54:07.295Z,4.23
2022-10-19T18:56:36.578Z,3.53
2022-10-19T18:59:05.109Z,4.30
2022-10-19T19:01:33.489Z,4.73
2022-10-19T19:04:06.777Z,5.40
2022-10-19T19:06:36.227Z,4.43
2022-10-19T19:09:07.219Z,3.43
2022-10-19T19:11:37.469Z,3.50
2022-10-19T19:14:07.086Z,3.53
2022-10-19T19:16:36.382Z,5.23
2022-10-19T19:19:05.066Z,5.40
2022-10-19T19:21:34.977Z,4.80
2022-10-19T19:24:04.332Z,2.20
2022-10-19T19:26:34.986Z,4.20
2022-10-19T19:29:03.855Z,4.27
2022-10-19T19:31:32.507Z,4.50
2022-10-19T19:34:03.639Z,5.23
2022-10-19T19:36:32.012Z,5.80
2022-10-19T19:39:00.649Z,6.87
2022-10-19T19:41:29.006Z,3.57
2022-10-19T19:43:59.003Z,4.00
2022-10-19T19:46:27.709Z,2.57
2022-10-19T19:48:59.803Z,4.30
2022-10-19T19:51:28.668Z,4.93
2022-10-19T19:53:57.248Z,3.00
2022-10-19T19:56:25.578Z,3.80
2022-10-19T19:58:56.227Z,4.90
2022-10-19T20:01:26.222Z,5.47
2022-10-19T20:03:54.783Z,1.40
2022-10-19T20:06:25.921Z,3.87
2022-10-19T20:08:54.985Z,4.63
2022-10-19T20:11:23.898Z,2.13
2022-10-19T20:13:52.409Z,5.40
2022-10-19T20:16:25.147Z,3.30
2022-10-19T20:19:00.636Z,5.03
2022-10-19T20:21:29.063Z,2.97
2022-10-19T20:23:57.367Z,2.27
2022-10-19T20:26:26.696Z,3.77
2022-10-19T20:28:55.134Z,5.53
2022-10-19T20:31:23.529Z,3.63
2022-10-19T20:33:51.950Z,1.70
2022-10-19T20:36:22.233Z,3.53
2022-10-19T20:38:51.557Z,4.23
2022-10-19T20:41:20.415Z,4.07
2022-10-19T20:43:48.940Z,4.83
2022-10-19T20:46:18.782Z,5.97
2022-10-19T20:48:47.485Z,3.40
2022-10-19T20:51:16.585Z,2.83
2022-10-19T20:53:47.248Z,5.87
2022-10-19T20:56:16.339Z,5.67
2022-10-19T20:58:45.286Z,3.90
2022-10-19T21:01:14.493Z,5.20
2022-10-19T21:03:46.783Z,5.00
2022-10-19T21:06:15.161Z,4.03
2022-10-19T21:08:43.593Z,4.50
2022-10-19T21:11:17.085Z,3.23
2022-10-19T21:13:45.674Z,5.90
2022-10-19T21:16:15.507Z,4.10
2022-10-19T21:18:44.261Z,3.40
2022-10-19T21:21:16.611Z,5.10
2022-10-19T21:23:45.337Z,3.83
2022-10-19T21:26:13.930Z,4.13
2022-10-19T21:28:46.864Z,5.80
2022-10-19T21:31:15.254Z,4.80
2022-10-19T21:33:43.564Z,4.23
2022-10-19T21:36:12.069Z,5.67
2022-10-19T21:38:40.537Z,4.37
2022-10-19T21:41:09.743Z,5.00
2022-10-19T21:43:38.110Z,4.80
2022-10-19T21:46:08.537Z,2.90
2022-10-19T21:48:36.962Z,5.83
2022-10-19T21:51:12.971Z,4.63
2022-10-19T21:53:41.286Z,4.83
2022-10-19T21:56:09.577Z,6.03
2022-10-19T21:58:38.153Z,6.17
2022-10-19T22:01:08.439Z,3.50
2022-10-19T22:03:36.771Z,3.63
2022-10-19T22:06:05.219Z,4.07
2022-10-19T22:08:33.586Z,7.03
2022-10-19T22:11:05.900Z,5.87
2022-10-19T22:13:34.416Z,5.53
2022-10-19T22:16:06.068Z,7.07
2022-10-19T22:18:35.815Z,6.03
2022-10-19T22:21:05.478Z,4.30
2022-10-19T22:23:33.811Z,2.53
2022-10-19T22:26:02.209Z,4.37
2022-10-19T22:28:30.525Z,3.70
2022-10-19T22:30:59.663Z,4.40
2022-10-19T22:33:28.005Z,5.43
2022-10-19T22:35:58.538Z,5.57
2022-10-19T22:38:27.384Z,5.30
2022-10-19T22:41:32.060Z,4.27
2022-10-19T22:44:00.373Z,4.90
2022-10-19T22:46:28.708Z,5.23
2022-10-19T22:48:57.114Z,3.83
2022-10-19T22:51:26.836Z,2.93
2022-10-19T22:53:55.167Z,2.60
2022-10-19T22:56:23.470Z,3.03
2022-10-19T22:58:51.771Z,3.63
2022-10-19T23:01:20.184Z,3.17
2022-10-19T23:03:48.610Z,3.60
2022-10-19T23:06:16.959Z,4.80
2022-10-19T23:08:46.766Z,5.30
2022-10-19T23:11:15.422Z,3.23
2022-10-19T23:13:44.120Z,5.63
2022-10-19T23:16:12.544Z,4.53
2022-10-19T23:18:41.857Z,3.07
2022-10-19T23:21:10.970Z,3.03
2022-10-19T23:23:39.297Z,3.33
2022-10-19T23:26:10.458Z,2.83
2022-10-19T23:28:39.591Z,2.67
2022-10-19T23:31:08.867Z,3.10
2022-10-19T23:33:40.366Z,3.27
2022-10-19T23:36:14.279Z,3.83
2022-10-19T23:38:42.844Z,2.23
2022-10-19T23:41:12.578Z,2.63
2022-10-19T23:43:41.010Z,4.60
2022-10-19T23:46:11.792Z,4.30
2022-10-19T23:48:40.617Z,3.97
2022-10-19T23:51:10.038Z,3.40
2022-10-19T23:53:41.083Z,3.63
2022-10-19T23:56:11.703Z,3.77
2022-10-19T23:58:41.355Z,5.33
